createdAt,value
2023-05-20T00:01:25.000Z,12.6
2023-05-20T00:02:56.000Z,12.6
2023-05-20T00:04:26.000Z,12.6
2023-05-20T00:05:57.000Z,12.5
2023-05-20T00:07:27.000Z,12.5
2023-05-20T00:08:58.000Z,12.4
2023-05-20T00:10:28.000Z,12.4
2023-05-20T00:11:45.000Z,12.4
2023-05-20T00:13:02.000Z,12.3
2023-05-20T00:14:33.000Z,12.4
2023-05-20T00:16:03.000Z,12.4
2023-05-20T00:17:34.000Z,12.4
2023-05-20T00:19:04.000Z,12.4
2023-05-20T00:20:35.000Z,12.3
2023-05-20T00:22:05.000Z,12.3
2023-05-20T00:23:36.000Z,12.2
2023-05-20T00:25:06.000Z,12.2
2023-05-20T00:26:37.000Z,12.2
2023-05-20T00:27:54.000Z,12.2
2023-05-20T00:29:11.000Z,12.2
2023-05-20T00:30:41.000Z,12.1
2023-05-20T00:32:12.000Z,12.1
2023-05-20T00:33:42.000Z,12.1
2023-05-20T00:35:13.000Z,12.1
2023-05-20T00:36:43.000Z,12.1
2023-05-20T00:38:14.000Z,12.1
2023-05-20T00:39:44.000Z,12.1
2023-05-20T00:41:15.000Z,12
2023-05-20T00:42:45.000Z,12
2023-05-20T00:44:02.000Z,12
2023-05-20T00:45:19.000Z,12
2023-05-20T00:46:50.000Z,12
2023-05-20T00:48:20.000Z,12
2023-05-20T00:51:21.000Z,12
2023-05-20T00:52:52.000Z,12
2023-05-20T00:54:22.000Z,12
2023-05-20T00:55:53.000Z,11.9
2023-05-20T00:57:23.000Z,11.9
2023-05-20T00:58:54.000Z,11.9
2023-05-20T01:00:11.000Z,11.8
2023-05-20T01:01:28.000Z,11.8
2023-05-20T01:02:58.000Z,11.8
2023-05-20T01:04:29.000Z,11.8
2023-05-20T01:05:59.000Z,11.8
2023-05-20T01:07:30.000Z,11.8
2023-05-20T01:09:00.000Z,11.7
2023-05-20T01:10:31.000Z,11.7
2023-05-20T01:12:01.000Z,11.7
2023-05-20T01:13:32.000Z,11.6
2023-05-20T01:15:02.000Z,11.6
2023-05-20T01:16:19.000Z,11.6
2023-05-20T01:17:36.000Z,11.6
2023-05-20T01:19:06.000Z,11.6
2023-05-20T01:20:37.000Z,11.6
2023-05-20T01:22:07.000Z,11.7
2023-05-20T01:23:38.000Z,11.6
2023-05-20T01:25:08.000Z,11.6
2023-05-20T01:26:39.000Z,11.7
2023-05-20T01:28:10.000Z,11.7
2023-05-20T01:29:40.000Z,11.7
2023-05-20T01:31:11.000Z,11.7
2023-05-20T01:32:28.000Z,11.7
2023-05-20T01:33:44.000Z,11.7
2023-05-20T01:35:15.000Z,11.7
2023-05-20T01:36:46.000Z,11.7
2023-05-20T01:38:16.000Z,11.7
2023-05-20T01:39:47.000Z,11.6
2023-05-20T01:41:17.000Z,11.6
2023-05-20T01:42:48.000Z,11.6
2023-05-20T01:44:18.000Z,11.6
2023-05-20T01:45:49.000Z,11.6
2023-05-20T01:47:19.000Z,11.6
2023-05-20T01:48:36.000Z,11.5
2023-05-20T01:49:53.000Z,11.5
2023-05-20T01:51:24.000Z,11.5
2023-05-20T01:52:54.000Z,11.5
2023-05-20T01:54:25.000Z,11.5
2023-05-20T01:55:55.000Z,11.4
2023-05-20T01:57:26.000Z,11.5
2023-05-20T01:58:56.000Z,11.4
2023-05-20T02:00:27.000Z,11.4
2023-05-20T02:01:57.000Z,11.4
2023-05-20T02:03:28.000Z,11.4
2023-05-20T02:04:45.000Z,11.4
2023-05-20T02:06:02.000Z,11.4
2023-05-20T02:07:32.000Z,11.4
2023-05-20T02:09:03.000Z,11.3
2023-05-20T02:10:33.000Z,11.3
2023-05-20T02:12:04.000Z,11.3
2023-05-20T02:13:34.000Z,11.2
2023-05-20T02:15:05.000Z,11.2
2023-05-20T02:16:35.000Z,11.2
2023-05-20T02:18:06.000Z,11.3
2023-05-20T02:19:36.000Z,11.3
2023-05-20T02:20:53.000Z,11.3
2023-05-20T02:22:10.000Z,11.3
2023-05-20T02:23:41.000Z,11.3
2023-05-20T02:25:11.000Z,11.3
2023-05-20T02:26:42.000Z,11.2
2023-05-20T02:28:12.000Z,11.2
2023-05-20T02:29:43.000Z,11.2
2023-05-20T02:31:13.000Z,11.2
2023-05-20T02:32:44.000Z,11.1
2023-05-20T02:34:14.000Z,11.1
2023-05-20T02:35:45.000Z,11.1
2023-05-20T02:37:02.000Z,11
2023-05-20T02:38:18.000Z,11
2023-05-20T02:39:57.000Z,11
2023-05-20T02:41:27.000Z,11
2023-05-20T02:42:58.000Z,11
2023-05-20T02:44:28.000Z,11
2023-05-20T02:45:59.000Z,11.1
2023-05-20T02:47:29.000Z,11.1
2023-05-20T02:49:00.000Z,11.1
2023-05-20T02:50:31.000Z,11
2023-05-20T02:52:01.000Z,11
2023-05-20T02:53:18.000Z,11
2023-05-20T02:54:35.000Z,10.9
2023-05-20T02:56:05.000Z,10.9
2023-05-20T02:57:36.000Z,10.9
2023-05-20T02:59:07.000Z,10.9
2023-05-20T03:00:37.000Z,10.9
2023-05-20T03:02:08.000Z,10.9
2023-05-20T03:03:38.000Z,10.9
2023-05-20T03:05:09.000Z,10.9
2023-05-20T03:06:39.000Z,10.9
2023-05-20T03:08:10.000Z,10.9
2023-05-20T03:09:27.000Z,10.8
2023-05-20T03:10:44.000Z,10.8
2023-05-20T03:12:14.000Z,10.8
2023-05-20T03:13:45.000Z,10.8
2023-05-20T03:15:15.000Z,10.8
2023-05-20T03:16:46.000Z,10.8
2023-05-20T03:18:16.000Z,10.8
2023-05-20T03:19:47.000Z,10.8
2023-05-20T03:21:17.000Z,10.8
2023-05-20T03:22:48.000Z,10.7
2023-05-20T03:24:18.000Z,10.7
2023-05-20T03:25:35.000Z,10.7
2023-05-20T03:26:52.000Z,10.7
2023-05-20T03:28:23.000Z,10.7
2023-05-20T03:29:53.000Z,10.8
2023-05-20T03:31:24.000Z,10.8
2023-05-20T03:32:54.000Z,10.8
2023-05-20T03:34:25.000Z,10.8
2023-05-20T03:35:55.000Z,10.8
2023-05-20T03:37:26.000Z,10.8
2023-05-20T03:38:56.000Z,10.7
2023-05-20T03:40:27.000Z,10.7
2023-05-20T03:41:44.000Z,10.7
2023-05-20T03:43:01.000Z,10.7
2023-05-20T03:44:31.000Z,10.7
2023-05-20T03:46:02.000Z,10.7
2023-05-20T03:47:32.000Z,10.7
2023-05-20T03:49:03.000Z,10.8
2023-05-20T03:50:33.000Z,10.8
2023-05-20T03:52:04.000Z,10.8
2023-05-20T03:53:34.000Z,10.8
2023-05-20T03:55:05.000Z,10.8
2023-05-20T03:56:35.000Z,10.8
2023-05-20T03:57:52.000Z,10.8
2023-05-20T03:59:09.000Z,10.9
2023-05-20T04:00:40.000Z,10.9
2023-05-20T04:02:10.000Z,10.9
2023-05-20T04:03:41.000Z,10.9
2023-05-20T04:05:11.000Z,10.9
2023-05-20T04:06:42.000Z,10.9
2023-05-20T04:08:12.000Z,10.9
2023-05-20T04:09:43.000Z,10.9
2023-05-20T04:11:13.000Z,11
2023-05-20T04:12:44.000Z,11.1
2023-05-20T04:14:00.000Z,11.1
2023-05-20T04:15:17.000Z,11.2
2023-05-20T04:16:48.000Z,11.2
2023-05-20T04:18:18.000Z,11.3
2023-05-20T04:19:49.000Z,11.3
2023-05-20T04:21:19.000Z,11.4
2023-05-20T04:22:50.000Z,11.4
2023-05-20T04:24:20.000Z,11.5
2023-05-20T04:25:51.000Z,11.7
2023-05-20T04:27:21.000Z,11.8
2023-05-20T04:28:52.000Z,11.9
2023-05-20T04:30:09.000Z,12
2023-05-20T04:31:26.000Z,12.2
2023-05-20T04:32:56.000Z,12.3
2023-05-20T04:34:27.000Z,12.4
2023-05-20T04:35:57.000Z,12.5
2023-05-20T04:37:28.000Z,12.5
2023-05-20T04:38:58.000Z,12.6
2023-05-20T04:40:29.000Z,12.7
2023-05-20T04:41:59.000Z,12.8
2023-05-20T04:43:30.000Z,12.9
2023-05-20T04:45:00.000Z,13
2023-05-20T04:46:17.000Z,13.1
2023-05-20T04:47:34.000Z,13.3
2023-05-20T04:49:05.000Z,13.3
2023-05-20T04:50:35.000Z,13.3
2023-05-20T04:52:06.000Z,13.3
2023-05-20T04:53:36.000Z,13.3
2023-05-20T04:55:07.000Z,13.3
2023-05-20T04:56:37.000Z,13.3
2023-05-20T04:58:08.000Z,13.4
2023-05-20T04:59:38.000Z,13.4
2023-05-20T05:01:09.000Z,13.5
2023-05-20T05:02:26.000Z,13.5
2023-05-20T05:03:43.000Z,13.5
2023-05-20T05:05:13.000Z,13.5
2023-05-20T05:06:44.000Z,13.5
2023-05-20T05:08:14.000Z,13.5
2023-05-20T05:09:45.000Z,13.6
2023-05-20T05:11:15.000Z,13.7
2023-05-20T05:12:46.000Z,13.7
2023-05-20T05:14:17.000Z,13.7
2023-05-20T05:15:47.000Z,13.7
2023-05-20T05:17:18.000Z,13.8
2023-05-20T05:18:35.000Z,13.8
2023-05-20T05:19:51.000Z,13.9
2023-05-20T05:21:22.000Z,13.9
2023-05-20T05:22:53.000Z,13.9
2023-05-20T05:24:23.000Z,13.9
2023-05-20T05:25:54.000Z,13.9
2023-05-20T05:27:24.000Z,13.9
2023-05-20T05:28:55.000Z,13.9
2023-05-20T05:30:25.000Z,14
2023-05-20T05:31:56.000Z,14
2023-05-20T05:33:26.000Z,14
2023-05-20T05:34:43.000Z,14
2023-05-20T05:36:00.000Z,14
2023-05-20T05:37:31.000Z,14.1
2023-05-20T05:39:01.000Z,14.1
2023-05-20T05:40:32.000Z,14.1
2023-05-20T05:43:33.000Z,14.1
2023-05-20T05:45:03.000Z,14.1
2023-05-20T05:46:34.000Z,14.2
2023-05-20T05:48:04.000Z,14.2
2023-05-20T05:49:35.000Z,14.3
2023-05-20T05:50:52.000Z,14.4
2023-05-20T05:52:09.000Z,14.4
2023-05-20T05:53:39.000Z,14.4
2023-05-20T05:55:10.000Z,14.4
2023-05-20T05:56:40.000Z,14.4
2023-05-20T05:58:11.000Z,14.5
2023-05-20T05:59:41.000Z,14.5
2023-05-20T06:01:12.000Z,14.4
2023-05-20T06:02:42.000Z,14.5
2023-05-20T06:04:13.000Z,14.5
2023-05-20T06:05:43.000Z,14.6
2023-05-20T06:07:00.000Z,14.6
2023-05-20T06:08:17.000Z,14.7
2023-05-20T06:09:48.000Z,14.8
2023-05-20T06:11:18.000Z,14.8
2023-05-20T06:12:49.000Z,14.7
2023-05-20T06:14:19.000Z,14.8
2023-05-20T06:15:50.000Z,14.8
2023-05-20T06:18:51.000Z,14.9
2023-05-20T06:20:21.000Z,14.9
2023-05-20T06:23:09.000Z,15
2023-05-20T06:24:26.000Z,15
2023-05-20T06:25:56.000Z,15.1
2023-05-20T06:27:27.000Z,15
2023-05-20T06:28:57.000Z,15
2023-05-20T06:30:28.000Z,15
2023-05-20T06:31:58.000Z,15.1
2023-05-20T06:33:29.000Z,15.2
2023-05-20T06:34:59.000Z,15.3
2023-05-20T06:36:30.000Z,15.2
2023-05-20T06:38:00.000Z,15.2
2023-05-20T06:39:17.000Z,15.3
2023-05-20T06:40:34.000Z,15.4
2023-05-20T06:42:04.000Z,15.5
2023-05-20T06:43:35.000Z,15.6
2023-05-20T06:45:05.000Z,15.6
2023-05-20T06:46:36.000Z,15.6
2023-05-20T06:48:06.000Z,15.6
2023-05-20T06:49:37.000Z,15.7
2023-05-20T06:51:07.000Z,15.7
2023-05-20T06:52:38.000Z,15.7
2023-05-20T06:56:42.000Z,15.7
2023-05-20T06:58:13.000Z,15.8
2023-05-20T06:59:43.000Z,15.9
2023-05-20T07:01:14.000Z,16
2023-05-20T07:02:44.000Z,16.2
2023-05-20T07:04:15.000Z,16.3
2023-05-20T07:05:45.000Z,16.3
2023-05-20T07:07:16.000Z,16.3
2023-05-20T07:08:46.000Z,16.3
2023-05-20T07:10:17.000Z,16.3
2023-05-20T07:11:34.000Z,16.3
2023-05-20T07:12:51.000Z,16.4
2023-05-20T07:14:21.000Z,16.4
2023-05-20T07:15:52.000Z,16.4
2023-05-20T07:17:22.000Z,16.3
2023-05-20T07:18:53.000Z,16.3
2023-05-20T07:20:23.000Z,16.2
2023-05-20T07:21:54.000Z,16.1
2023-05-20T07:24:55.000Z,15.8
2023-05-20T07:26:25.000Z,15.7
2023-05-20T07:27:42.000Z,15.7
2023-05-20T07:28:59.000Z,15.8
2023-05-20T07:30:30.000Z,15.9
2023-05-20T07:32:00.000Z,15.9
2023-05-20T07:33:31.000Z,15.9
2023-05-20T07:35:01.000Z,16
2023-05-20T07:38:03.000Z,15.8
2023-05-20T07:39:33.000Z,15.8
2023-05-20T07:41:04.000Z,15.8
2023-05-20T07:42:42.000Z,15.9
2023-05-20T07:43:59.000Z,15.9
2023-05-20T07:45:16.000Z,15.9
2023-05-20T07:48:17.000Z,15.9
2023-05-20T07:49:48.000Z,15.9
2023-05-20T07:51:18.000Z,15.9
2023-05-20T07:52:49.000Z,15.9
2023-05-20T07:55:50.000Z,15.9
2023-05-20T07:57:20.000Z,15.9
2023-05-20T07:58:51.000Z,16
2023-05-20T08:00:08.000Z,15.9
2023-05-20T08:02:55.000Z,16
2023-05-20T08:04:26.000Z,16
2023-05-20T08:05:56.000Z,16.1
2023-05-20T08:08:57.000Z,16.2
2023-05-20T08:10:28.000Z,16.2
2023-05-20T08:11:58.000Z,16.2
2023-05-20T08:13:29.000Z,16.3
2023-05-20T08:14:59.000Z,16.4
2023-05-20T08:16:16.000Z,16.4
2023-05-20T08:17:33.000Z,16.4
2023-05-20T08:19:04.000Z,16.5
2023-05-20T08:20:34.000Z,16.5
2023-05-20T08:22:05.000Z,16.6
2023-05-20T08:25:06.000Z,17.1
2023-05-20T08:26:36.000Z,17.2
2023-05-20T08:28:07.000Z,17.4
2023-05-20T08:29:37.000Z,17.5
2023-05-20T08:32:25.000Z,17.6
2023-05-20T08:33:42.000Z,17.5
2023-05-20T08:35:12.000Z,17.5
2023-05-20T08:36:43.000Z,17.4
2023-05-20T08:38:13.000Z,17.5
2023-05-20T08:39:44.000Z,17.5
2023-05-20T08:41:14.000Z,17.5
2023-05-20T08:44:15.000Z,17.6
2023-05-20T08:45:46.000Z,17.6
2023-05-20T08:47:16.000Z,17.7
2023-05-20T08:48:33.000Z,17.7
2023-05-20T08:49:50.000Z,17.6
2023-05-20T08:51:21.000Z,17.6
2023-05-20T08:52:51.000Z,17.5
2023-05-20T08:54:22.000Z,17.5
2023-05-20T08:55:52.000Z,17.6
2023-05-20T08:58:53.000Z,17.6
2023-05-20T09:01:54.000Z,17.5
2023-05-20T09:03:25.000Z,17.4
2023-05-20T09:04:42.000Z,17.4
2023-05-20T09:05:58.000Z,17.4
2023-05-20T09:07:29.000Z,17.2
2023-05-20T09:09:00.000Z,17.4
2023-05-20T09:10:30.000Z,17.8
2023-05-20T09:12:01.000Z,17.9
2023-05-20T09:13:31.000Z,18.2
2023-05-20T09:15:02.000Z,18.3
2023-05-20T09:16:32.000Z,18.7
2023-05-20T09:18:03.000Z,19.6
2023-05-20T09:19:33.000Z,20
2023-05-20T09:20:50.000Z,19.8
2023-05-20T09:22:07.000Z,19.5
2023-05-20T09:23:38.000Z,19.2
2023-05-20T09:25:08.000Z,18.9
2023-05-20T09:26:39.000Z,18.7
2023-05-20T09:28:09.000Z,18.8
2023-05-20T09:29:40.000Z,18.8
2023-05-20T09:31:10.000Z,19.1
2023-05-20T09:32:41.000Z,19.4
2023-05-20T09:35:42.000Z,20
2023-05-20T09:36:58.000Z,20.2
2023-05-20T09:38:15.000Z,20.3
2023-05-20T09:39:46.000Z,20.5
2023-05-20T09:41:16.000Z,20.7
2023-05-20T09:42:47.000Z,21.1
2023-05-20T09:44:17.000Z,21.4
2023-05-20T09:45:48.000Z,21.4
2023-05-20T09:47:18.000Z,21.3
2023-05-20T09:48:49.000Z,21.5
2023-05-20T09:50:19.000Z,21.2
2023-05-20T09:51:50.000Z,21.2
2023-05-20T09:53:06.000Z,21.5
2023-05-20T09:54:23.000Z,21.4
2023-05-20T09:55:54.000Z,21.3
2023-05-20T09:58:55.000Z,22
2023-05-20T10:00:25.000Z,22.7
2023-05-20T10:01:56.000Z,22.9
2023-05-20T10:03:26.000Z,22.9
2023-05-20T10:04:57.000Z,22.6
2023-05-20T10:06:27.000Z,23.1
2023-05-20T10:09:15.000Z,23.3
2023-05-20T10:10:32.000Z,23.1
2023-05-20T10:12:02.000Z,22.4
2023-05-20T10:15:03.000Z,21.6
2023-05-20T10:16:34.000Z,21.1
2023-05-20T10:18:04.000Z,21.3
2023-05-20T10:19:35.000Z,21.6
2023-05-20T10:21:05.000Z,21.8
2023-05-20T10:22:36.000Z,22.4
2023-05-20T10:24:06.000Z,22.8
2023-05-20T10:25:23.000Z,23
2023-05-20T10:26:40.000Z,23
2023-05-20T10:28:10.000Z,23.1
2023-05-20T10:31:11.000Z,23.7
2023-05-20T10:32:42.000Z,23.9
2023-05-20T10:34:12.000Z,23
2023-05-20T10:35:43.000Z,23.1
2023-05-20T10:37:13.000Z,24
2023-05-20T10:40:14.000Z,22.6
2023-05-20T10:41:31.000Z,22.6
2023-05-20T10:42:48.000Z,22.2
2023-05-20T10:44:18.000Z,22.6
2023-05-20T10:45:49.000Z,23.3
2023-05-20T10:47:19.000Z,23.4
2023-05-20T10:48:50.000Z,22.7
2023-05-20T10:50:20.000Z,21.8
2023-05-20T10:53:21.000Z,23.7
2023-05-20T10:54:52.000Z,24.6
2023-05-20T10:57:39.000Z,23.3
2023-05-20T11:00:27.000Z,23.6
2023-05-20T11:01:57.000Z,24
2023-05-20T11:06:29.000Z,22
2023-05-20T11:09:30.000Z,21.7
2023-05-20T11:12:31.000Z,20.2
2023-05-20T11:13:48.000Z,20.6
2023-05-20T11:15:05.000Z,21.3
2023-05-20T11:19:36.000Z,22.5
2023-05-20T11:21:07.000Z,23.1
2023-05-20T11:22:38.000Z,22.5
2023-05-20T11:24:08.000Z,22.2
2023-05-20T11:25:39.000Z,21.9
2023-05-20T11:27:09.000Z,22.2
2023-05-20T11:28:40.000Z,21.7
2023-05-20T11:29:57.000Z,21.4
2023-05-20T11:35:45.000Z,21
2023-05-20T11:38:46.000Z,21.3
2023-05-20T11:40:17.000Z,22.3
2023-05-20T11:41:47.000Z,23.6
2023-05-20T11:43:18.000Z,23.7
2023-05-20T11:44:48.000Z,22.6
2023-05-20T11:46:05.000Z,21.6
2023-05-20T11:47:22.000Z,21.3
2023-05-20T11:50:23.000Z,22
2023-05-20T11:51:54.000Z,21.4
2023-05-20T11:53:24.000Z,21
2023-05-20T11:56:25.000Z,20.4
2023-05-20T11:57:56.000Z,20.1
2023-05-20T11:59:26.000Z,20
2023-05-20T12:03:31.000Z,20.4
2023-05-20T12:06:32.000Z,20
2023-05-20T12:08:02.000Z,20.1
2023-05-20T12:09:33.000Z,20.5
2023-05-20T12:11:03.000Z,21.1
2023-05-20T12:12:34.000Z,21.1
2023-05-20T12:14:04.000Z,20.7
2023-05-20T12:15:35.000Z,20.5
2023-05-20T12:17:05.000Z,21.1
2023-05-20T12:18:22.000Z,21.9
2023-05-20T12:19:39.000Z,21.3
2023-05-20T12:21:10.000Z,20.7
2023-05-20T12:22:40.000Z,20.4
2023-05-20T12:25:41.000Z,20.1
2023-05-20T12:27:12.000Z,20
2023-05-20T12:28:42.000Z,20
2023-05-20T12:30:13.000Z,20.1
2023-05-20T12:31:43.000Z,20.2
2023-05-20T12:34:31.000Z,20
2023-05-20T12:35:48.000Z,20.5
2023-05-20T12:37:18.000Z,20.7
2023-05-20T12:38:49.000Z,20.7
2023-05-20T12:40:19.000Z,20.6
2023-05-20T12:41:50.000Z,20.3
2023-05-20T12:44:51.000Z,19.8
2023-05-20T12:46:21.000Z,19.8
2023-05-20T12:48:00.000Z,19.7
2023-05-20T12:49:30.000Z,19.7
2023-05-20T12:50:47.000Z,19.8
2023-05-20T12:52:04.000Z,19.8
2023-05-20T12:53:35.000Z,19.8
2023-05-20T12:55:05.000Z,19.9
2023-05-20T12:56:36.000Z,20
2023-05-20T12:59:37.000Z,20.2
2023-05-20T13:02:38.000Z,20.5
2023-05-20T13:04:09.000Z,21.1
2023-05-20T13:05:39.000Z,21.3
2023-05-20T13:06:56.000Z,20.5
2023-05-20T13:08:13.000Z,19.9
2023-05-20T13:09:44.000Z,19.6
2023-05-20T13:11:14.000Z,19.4
2023-05-20T13:12:45.000Z,19.4
2023-05-20T13:15:46.000Z,19.6
2023-05-20T13:18:47.000Z,19.9
2023-05-20T13:20:17.000Z,19.7
2023-05-20T13:23:05.000Z,19.5
2023-05-20T13:24:22.000Z,19.5
2023-05-20T13:25:52.000Z,19.7
2023-05-20T13:28:53.000Z,19.9
2023-05-20T13:30:24.000Z,20
2023-05-20T13:31:54.000Z,20
2023-05-20T13:33:25.000Z,19.9
2023-05-20T13:34:55.000Z,19.8
2023-05-20T13:36:26.000Z,19.6
2023-05-20T13:37:56.000Z,19.6
2023-05-20T13:39:13.000Z,19.7
2023-05-20T13:42:01.000Z,20.2
2023-05-20T13:43:31.000Z,20.5
2023-05-20T13:45:02.000Z,20.3
2023-05-20T13:46:32.000Z,20.6
2023-05-20T13:48:03.000Z,21
2023-05-20T13:49:33.000Z,21.3
2023-05-20T13:52:34.000Z,21.5
2023-05-20T13:54:05.000Z,21.4
2023-05-20T13:55:21.000Z,21.4
2023-05-20T13:56:38.000Z,21.5
2023-05-20T13:58:09.000Z,21.5
2023-05-20T13:59:39.000Z,21.3
2023-05-20T14:01:10.000Z,21.1
2023-05-20T14:02:40.000Z,21.1
2023-05-20T14:04:11.000Z,21.2
2023-05-20T14:05:41.000Z,21.3
2023-05-20T14:07:12.000Z,21.3
2023-05-20T14:10:13.000Z,20.8
2023-05-20T14:11:30.000Z,20.6
2023-05-20T14:12:47.000Z,20.2
2023-05-20T14:14:17.000Z,20
2023-05-20T14:15:48.000Z,20
2023-05-20T14:17:18.000Z,20.1
2023-05-20T14:18:49.000Z,20.1
2023-05-20T14:20:19.000Z,20.2
2023-05-20T14:23:20.000Z,20.3
2023-05-20T14:24:51.000Z,20.3
2023-05-20T14:26:21.000Z,20.4
2023-05-20T14:27:38.000Z,20.4
2023-05-20T14:28:55.000Z,20.4
2023-05-20T14:31:56.000Z,20.2
2023-05-20T14:33:27.000Z,20.2
2023-05-20T14:34:57.000Z,20.5
2023-05-20T14:36:28.000Z,20.2
2023-05-20T14:37:58.000Z,20.1
2023-05-20T14:39:29.000Z,20.2
2023-05-20T14:40:59.000Z,20.8
2023-05-20T14:42:30.000Z,21.3
2023-05-20T14:43:47.000Z,21.7
2023-05-20T14:45:04.000Z,21.7
2023-05-20T14:46:34.000Z,21.7
2023-05-20T14:48:05.000Z,21.3
2023-05-20T14:49:35.000Z,21
2023-05-20T14:51:06.000Z,20.9
2023-05-20T14:52:36.000Z,21.1
2023-05-20T14:54:07.000Z,21.3
2023-05-20T14:55:37.000Z,21.3
2023-05-20T14:57:08.000Z,20.7
2023-05-20T14:58:38.000Z,20.2
2023-05-20T14:59:55.000Z,19.9
2023-05-20T15:01:12.000Z,19.8
2023-05-20T15:02:43.000Z,19.7
2023-05-20T15:04:13.000Z,19.6
2023-05-20T15:05:44.000Z,20.3
2023-05-20T15:08:45.000Z,20.8
2023-05-20T15:11:46.000Z,20.5
2023-05-20T15:13:16.000Z,20.3
2023-05-20T15:14:47.000Z,20.2
2023-05-20T15:16:04.000Z,19.9
2023-05-20T15:17:21.000Z,19.8
2023-05-20T15:18:51.000Z,19.7
2023-05-20T15:20:22.000Z,19.7
2023-05-20T15:21:52.000Z,19.6
2023-05-20T15:23:23.000Z,19.6
2023-05-20T15:24:53.000Z,19.6
2023-05-20T15:26:24.000Z,19.6
2023-05-20T15:27:54.000Z,19.6
2023-05-20T15:29:25.000Z,19.6
2023-05-20T15:30:55.000Z,19.6
2023-05-20T15:32:12.000Z,19.6
2023-05-20T15:33:29.000Z,19.6
2023-05-20T15:35:00.000Z,19.8
2023-05-20T15:36:30.000Z,19.9
2023-05-20T15:38:01.000Z,19.9
2023-05-20T15:39:31.000Z,19.7
2023-05-20T15:41:02.000Z,19.5
2023-05-20T15:44:03.000Z,19.3
2023-05-20T15:45:33.000Z,19.2
2023-05-20T15:47:04.000Z,19.1
2023-05-20T15:48:21.000Z,19.1
2023-05-20T15:49:38.000Z,19.1
2023-05-20T15:54:09.000Z,18.8
2023-05-20T15:55:40.000Z,18.7
2023-05-20T15:58:41.000Z,18.7
2023-05-20T16:00:11.000Z,18.7
2023-05-20T16:01:42.000Z,18.7
2023-05-20T16:03:12.000Z,18.6
2023-05-20T16:04:29.000Z,18.6
2023-05-20T16:05:46.000Z,18.6
2023-05-20T16:08:47.000Z,18.5
2023-05-20T16:11:48.000Z,18.6
2023-05-20T16:13:19.000Z,18.6
2023-05-20T16:14:49.000Z,18.5
2023-05-20T16:16:20.000Z,18.6
2023-05-20T16:17:50.000Z,18.5
2023-05-20T16:19:21.000Z,18.4
2023-05-20T16:20:38.000Z,18.4
2023-05-20T16:23:25.000Z,18.3
2023-05-20T16:24:56.000Z,18.3
2023-05-20T16:26:26.000Z,18.3
2023-05-20T16:27:57.000Z,18.3
2023-05-20T16:29:27.000Z,18.3
2023-05-20T16:30:58.000Z,18.3
2023-05-20T16:32:28.000Z,18.3
2023-05-20T16:33:59.000Z,18.2
2023-05-20T16:36:46.000Z,18.2
2023-05-20T16:38:03.000Z,18.2
2023-05-20T16:41:04.000Z,18.2
2023-05-20T16:46:34.000Z,18.1
2023-05-20T16:49:19.000Z,18.2
2023-05-20T16:51:52.000Z,18
2023-05-20T16:53:10.000Z,18
2023-05-20T16:55:55.000Z,18
2023-05-20T16:58:39.000Z,18
2023-05-20T17:01:24.000Z,17.9
2023-05-20T17:04:09.000Z,17.9
2023-05-20T17:06:53.000Z,17.9
2023-05-20T17:09:38.000Z,17.8
2023-05-20T17:12:22.000Z,17.9
2023-05-20T17:15:07.000Z,17.9
2023-05-20T17:17:52.000Z,17.8
2023-05-20T17:19:19.000Z,17.8
2023-05-20T17:23:37.000Z,17.7
2023-05-20T17:26:22.000Z,17.7
2023-05-20T17:31:51.000Z,17.6
2023-05-20T17:34:36.000Z,17.6
2023-05-20T17:40:05.000Z,17.6
2023-05-20T17:42:50.000Z,17.6
2023-05-20T17:45:35.000Z,17.5
2023-05-20T17:46:52.000Z,17.5
2023-05-20T17:48:19.000Z,17.5
2023-05-20T17:51:04.000Z,17.6
2023-05-20T17:54:05.000Z,17.5
2023-05-20T17:56:49.000Z,17.5
2023-05-20T17:59:34.000Z,17.5
2023-05-20T18:02:19.000Z,17.5
2023-05-20T18:05:03.000Z,17.5
2023-05-20T18:07:48.000Z,17.4
2023-05-20T18:10:33.000Z,17.4
2023-05-20T18:13:17.000Z,17.4
2023-05-20T18:14:35.000Z,17.3
2023-05-20T18:16:02.000Z,17.3
2023-05-20T18:18:47.000Z,17.3
2023-05-20T18:21:48.000Z,17.3
2023-05-20T18:27:17.000Z,17.2
2023-05-20T18:30:02.000Z,17.1
2023-05-20T18:33:03.000Z,17.1
2023-05-20T18:35:47.000Z,17.1
2023-05-20T18:38:32.000Z,17
2023-05-20T18:42:34.000Z,17
2023-05-20T18:44:01.000Z,17
2023-05-20T18:46:46.000Z,17
2023-05-20T18:49:30.000Z,16.9
2023-05-20T18:52:15.000Z,17
2023-05-20T18:55:00.000Z,16.9
2023-05-20T18:57:44.000Z,16.9
2023-05-20T19:00:29.000Z,16.9
2023-05-20T19:03:30.000Z,16.8
2023-05-20T19:06:15.000Z,16.8
2023-05-20T19:08:59.000Z,16.8
2023-05-20T19:10:17.000Z,16.8
2023-05-20T19:11:44.000Z,16.8
2023-05-20T19:14:29.000Z,16.7
2023-05-20T19:17:13.000Z,16.7
2023-05-20T19:19:58.000Z,16.7
2023-05-20T19:22:42.000Z,16.7
2023-05-20T19:25:27.000Z,16.7
2023-05-20T19:28:12.000Z,16.7
2023-05-20T19:31:13.000Z,16.6
2023-05-20T19:33:57.000Z,16.6
2023-05-20T19:36:42.000Z,16.6
2023-05-20T19:38:00.000Z,16.6
2023-05-20T19:39:27.000Z,16.6
2023-05-20T19:42:11.000Z,16.6
2023-05-20T19:44:56.000Z,16.6
2023-05-20T19:47:41.000Z,16.6
2023-05-20T19:50:25.000Z,16.5
2023-05-20T19:53:10.000Z,16.5
2023-05-20T19:55:54.000Z,16.5
2023-05-20T19:58:39.000Z,16.5
2023-05-20T20:01:24.000Z,16.5
2023-05-20T20:04:08.000Z,16.4
2023-05-20T20:05:26.000Z,16.4
2023-05-20T20:06:53.000Z,16.5
2023-05-20T20:09:38.000Z,16.5
2023-05-20T20:12:22.000Z,16.5
2023-05-20T20:15:07.000Z,16.5
2023-05-20T20:17:52.000Z,16.4
2023-05-20T20:20:36.000Z,16.4
2023-05-20T20:23:21.000Z,16.4
2023-05-20T20:26:06.000Z,16.4
2023-05-20T20:28:50.000Z,16.4
2023-05-20T20:31:35.000Z,16.3
2023-05-20T20:32:53.000Z,16.3
2023-05-20T20:34:19.000Z,16.3
2023-05-20T20:37:04.000Z,16.3
2023-05-20T20:39:49.000Z,16.3
2023-05-20T20:42:33.000Z,16.4
2023-05-20T20:45:18.000Z,16.3
2023-05-20T20:48:03.000Z,16.3
2023-05-20T20:50:47.000Z,16.3
2023-05-20T20:53:32.000Z,16.3
2023-05-20T20:56:17.000Z,16.3
2023-05-20T20:59:01.000Z,16.3
2023-05-20T21:00:19.000Z,16.2
2023-05-20T21:01:46.000Z,16.2
2023-05-20T21:04:31.000Z,16.2
2023-05-20T21:07:15.000Z,16.2
2023-05-20T21:10:00.000Z,16.2
2023-05-20T21:12:44.000Z,16.2
2023-05-20T21:15:29.000Z,16.2
2023-05-20T21:18:14.000Z,16.2
2023-05-20T21:20:58.000Z,16.1
2023-05-20T21:23:43.000Z,16.1
2023-05-20T21:26:28.000Z,16.1
2023-05-20T21:27:45.000Z,16.1
2023-05-20T21:29:12.000Z,16.2
2023-05-20T21:31:57.000Z,16.2
2023-05-20T21:34:42.000Z,16.2
2023-05-20T21:37:26.000Z,16.2
2023-05-20T21:40:11.000Z,16.2
2023-05-20T21:42:55.000Z,16.1
2023-05-20T21:45:40.000Z,16.1
2023-05-20T21:48:25.000Z,16.1
2023-05-20T21:51:09.000Z,16.1
2023-05-20T21:53:54.000Z,16.1
2023-05-20T21:55:12.000Z,16.1
2023-05-20T21:56:39.000Z,16.1
2023-05-20T21:59:23.000Z,16.1
2023-05-20T22:02:08.000Z,16.1
2023-05-20T22:04:53.000Z,16
2023-05-20T22:07:37.000Z,16
2023-05-20T22:10:22.000Z,16
2023-05-20T22:13:07.000Z,16
2023-05-20T22:15:51.000Z,16
2023-05-20T22:18:36.000Z,16
2023-05-20T22:21:20.000Z,16
2023-05-20T22:22:38.000Z,16
2023-05-20T22:24:05.000Z,16
2023-05-20T22:26:50.000Z,16
2023-05-20T22:29:34.000Z,15.9
2023-05-20T22:32:19.000Z,15.8
2023-05-20T22:35:04.000Z,15.8
2023-05-20T22:37:48.000Z,15.7
2023-05-20T22:40:33.000Z,15.7
2023-05-20T22:43:18.000Z,15.6
2023-05-20T22:46:02.000Z,15.6
2023-05-20T22:48:47.000Z,15.5
2023-05-20T22:50:05.000Z,15.5
2023-05-20T22:51:31.000Z,15.5
2023-05-20T22:54:16.000Z,15.5
2023-05-20T22:57:01.000Z,15.4
2023-05-20T22:59:45.000Z,15.4
2023-05-20T23:02:30.000Z,15.3
2023-05-20T23:05:15.000Z,15.3
2023-05-20T23:07:59.000Z,15.3
2023-05-20T23:10:44.000Z,15.2
2023-05-20T23:13:29.000Z,15.1
2023-05-20T23:16:13.000Z,15
2023-05-20T23:17:31.000Z,15
2023-05-20T23:18:58.000Z,15
2023-05-20T23:21:43.000Z,15
2023-05-20T23:24:27.000Z,14.9
2023-05-20T23:27:12.000Z,14.9
2023-05-20T23:29:56.000Z,14.9
2023-05-20T23:32:41.000Z,14.8
2023-05-20T23:35:26.000Z,14.8
2023-05-20T23:38:10.000Z,14.8
2023-05-20T23:40:55.000Z,14.8
2023-05-20T23:43:40.000Z,14.8
2023-05-20T23:44:58.000Z,14.7
2023-05-20T23:49:09.000Z,14.7
2023-05-20T23:51:54.000Z,14.6
2023-05-20T23:54:38.000Z,14.6
2023-05-20T23:57:23.000Z,14.6
